TAF Text Data
IDs:
Format:
Raw Decoded Include METAR

Data at: 0434 UTC 18 Oct 2018

KABY 172324Z 1800/1824 35005KT P6SM SKC
  FM181400 06005KT P6SM SCT050